Col Jabara, KS

6:27 AM CDT on August 23, 2014 (GMT -0500)
McConnell Air Force Base | Change Station
CLOSE
Current Station
Airport
Location: McConnell AFB,
Elevation: 1371 ft
Nearby Weather Stations

Elev 1371 ft 37.62 °N, 97.27 °W | Updated 29 minutes ago

Clear
Clear
73 °F
Feels Like 73 °F
N
10
Wind Variable Wind from SSE

Today
High -- | Low -- °F
--% Chance of Precip.
Yesterday
High -- | Low -- °F
Precip. -- in
6:51 AM 8:10 PM
Waning Crescent, 4% visible
Pressure 29.86 in
Visibility 10.0 miles
Clouds Clear
Dew Point 63 °F
Humidity 69%
Rainfall 0.00 in
Snow Depth Not available.
UV 0 out of 12
Pollen 11.80 out of 12
Air Quality Not available.
Flu Activity Not available.
METAR KIAB 231058Z AUTO 16009KT 10SM CLR 23/17 A2990 RMK AO2 SLP111 T02300170

More Conditions Fewer Conditions

Pressure 29.86 in
Visibility 10.0 miles
Clouds Clear
Dew Point 63 °F
Humidity 69%
Rainfall 0.00 in
Snow Depth Not available.
UV 0 out of 12
Pollen 11.80 out of 12
Air Quality Not available.
Flu Activity Not available.
METAR KIAB 231058Z AUTO 16009KT 10SM CLR 23/17 A2990 RMK AO2 SLP111 T02300170

More Conditions Fewer Conditions

10-Day Weather Forecast

Almanac

Astronomy

Aug. 23, 2014 Rise Set
Actual Time 6:51 AM CDT 8:10 PM CDT
Civil Twilight 6:23 AM CDT 8:38 PM CDT
Nautical Twilight 5:51 AM CDT 9:10 PM CDT
Astronomical Twilight 5:16 AM CDT 9:45 PM CDT
Moon 5:09 AM CDT 6:56 PM CDT
Length of Visible Light 14h 14m
Length of Day
13h 19m
Tomorrow will be 2m 15s shorter.
Waning Crescent, 4% of the Moon is Illuminated
Today
Waning Crescent
Aug 25
New
Sep 2
First Quarter
Sep 8
Full
Sep 15
Last Quarter

Today's Extremes

State Highs State Lows

Community

WunderPhotos

Upload Photos

1,746,418 photos uploaded!

WunderBlogs® & News

By Dr. Jeff Masters
Director of Meteorology, Weather Underground
By Kari Strenfel
Meteorologist, Weather Underground
By Christopher C. Burt
Weather Historian, Weather Underground
August 23, 2014
August 23, 2014
August 23, 2014

Nearby

Snow Depth

Station Depth Elevation
No new snow has been reported.

Earthquake Activity

City Distance Mag. Time & Date
Yale, Oklahoma 112 miles 2.5 11:22 AM CDT
2014-08-18
Waukomis, Oklahoma 103 miles 2.6 9:40 AM CDT
2014-08-18
Yale, Oklahoma 113 miles 2.5 8:07 AM CDT
2014-08-18
Cherokee, Oklahoma 84 miles 3.8 8:25 PM CDT
2014-08-17
Minimum magnitude displayed is 2.5.

Coastal Water Temperatures

Place Temperature
No Stations Reporting

Nearby Weather Stations